Time;durP1;ratioP1;P1;durP2;ratioP2;P2;SDS_P1;SDS_P2;PMS_P1;PMS_P2;Temp;Humidity;BMP_temperature;BMP_pressure;BME280_temperature;BME280_humidity;BME280_pressure;Samples;Min_cycle;Max_cycle;Signal;HPM_P1;HPM_P2
2023/11/23 00:02:15;;;;;;;5.97;3.60;;;3.10;99.90;;;;;;5028224;28;20545;-73
2023/11/23 00:04:41;;;;;;;5.67;3.60;;;3.00;99.90;;;;;;5041132;28;20220;-73
2023/11/23 00:07:07;;;;;;;3.80;2.93;;;2.90;99.90;;;;;;5045927;28;20473;-72
2023/11/23 00:09:33;;;;;;;4.63;3.27;;;2.90;99.90;;;;;;5036603;28;20331;-73
2023/11/23 00:11:59;;;;;;;6.50;3.67;;;3.10;99.90;;;;;;5014351;28;20546;-73
2023/11/23 00:14:25;;;;;;;4.17;3.27;;;3.30;99.90;;;;;;5056940;28;20459;-73
2023/11/23 00:16:51;;;;;;;3.83;3.10;;;3.40;99.90;;;;;;5026215;28;20450;-73
2023/11/23 00:19:17;;;;;;;4.43;3.10;;;3.40;99.90;;;;;;5069049;28;20472;-73
2023/11/23 00:21:42;;;;;;;4.07;3.10;;;3.30;99.90;;;;;;5062317;28;20215;-72
2023/11/23 00:24:08;;;;;;;3.10;2.57;;;3.20;99.90;;;;;;5014580;28;20340;-73
2023/11/23 00:26:34;;;;;;;3.80;2.70;;;3.20;99.90;;;;;;5024101;28;20220;-73
2023/11/23 00:29:00;;;;;;;3.13;2.73;;;3.30;99.90;;;;;;5028322;28;20467;-72
2023/11/23 00:31:26;;;;;;;4.73;2.90;;;3.00;99.90;;;;;;5016918;28;20232;-72
2023/11/23 00:33:52;;;;;;;9.07;3.80;;;2.70;99.90;;;;;;5057994;28;20527;-73
2023/11/23 00:36:18;;;;;;;3.80;2.50;;;2.70;99.90;;;;;;5046665;28;20223;-73
2023/11/23 00:38:44;;;;;;;4.40;3.10;;;2.70;99.90;;;;;;5034516;28;20220;-72
2023/11/23 00:41:10;;;;;;;4.57;2.80;;;2.80;99.90;;;;;;5041463;28;20253;-72
2023/11/23 00:43:36;;;;;;;3.80;3.13;;;2.80;99.90;;;;;;5049148;28;20495;-72
2023/11/23 00:46:03;;;;;;;4.73;3.33;;;2.90;99.90;;;;;;5023428;28;20217;-72
2023/11/23 00:48:28;;;;;;;5.40;3.27;;;2.80;99.90;;;;;;5037238;28;20232;-72
2023/11/23 00:50:54;;;;;;;6.70;4.40;;;2.70;99.90;;;;;;5027139;28;20463;-72
2023/11/23 00:53:21;;;;;;;4.97;2.87;;;2.70;99.90;;;;;;5038228;28;20221;-72
2023/11/23 00:55:48;;;;;;;6.57;3.40;;;2.60;99.90;;;;;;5041899;28;20213;-73
2023/11/23 00:58:14;;;;;;;5.50;3.77;;;2.70;99.90;;;;;;5031945;28;20521;-74
2023/11/23 01:00:40;;;;;;;5.57;3.83;;;2.80;99.90;;;;;;5025630;28;20457;-73
2023/11/23 01:03:06;;;;;;;4.20;2.80;;;2.80;99.90;;;;;;5052424;28;20219;-74
2023/11/23 01:05:32;;;;;;;4.50;3.13;;;2.80;99.90;;;;;;5049150;28;20222;-73
2023/11/23 01:07:57;;;;;;;3.93;3.33;;;2.80;99.90;;;;;;5050151;28;20482;-74
2023/11/23 01:10:24;;;;;;;3.47;2.60;;;2.90;99.90;;;;;;5038239;28;20229;-73
2023/11/23 01:12:51;;;;;;;6.07;3.30;;;3.10;99.90;;;;;;5043549;28;20564;-73
2023/11/23 01:15:17;;;;;;;5.40;3.23;;;3.10;99.90;;;;;;5042455;28;20524;-73
2023/11/23 01:17:43;;;;;;;3.23;2.93;;;3.00;99.90;;;;;;5030761;28;20466;-73
2023/11/23 01:20:09;;;;;;;10.10;3.93;;;3.00;99.90;;;;;;5046510;28;20219;-73
2023/11/23 01:22:36;;;;;;;3.43;2.67;;;3.10;99.90;;;;;;5067148;28;20713;-74
2023/11/23 01:25:06;;;;;;;5.30;2.50;;;3.10;99.90;;;;;;5045517;28;20467;-73
2023/11/23 01:27:32;;;;;;;4.60;3.43;;;3.20;99.90;;;;;;5060601;28;20471;-73
2023/11/23 01:29:58;;;;;;;4.13;2.53;;;3.20;99.90;;;;;;5030972;28;20512;-74
2023/11/23 01:32:23;;;;;;;5.60;3.33;;;3.20;99.90;;;;;;5032784;28;20278;-73
2023/11/23 01:34:49;;;;;;;6.07;3.00;;;3.30;99.90;;;;;;5048596;28;20213;-72
2023/11/23 01:37:15;;;;;;;3.50;2.50;;;3.20;99.90;;;;;;5043752;28;20212;-73
2023/11/23 01:39:40;;;;;;;3.77;3.00;;;3.10;99.90;;;;;;5046130;28;20212;-73
2023/11/23 01:42:06;;;;;;;7.20;3.60;;;3.20;99.90;;;;;;5045200;28;20231;-74
2023/11/23 01:44:32;;;;;;;3.03;2.70;;;3.10;99.90;;;;;;5048378;28;20224;-74
2023/11/23 01:46:58;;;;;;;3.50;3.07;;;3.00;99.90;;;;;;5043735;28;20230;-73
2023/11/23 01:49:25;;;;;;;6.13;3.10;;;3.10;99.90;;;;;;5045099;28;20604;-73
2023/11/23 01:51:51;;;;;;;5.77;3.33;;;3.10;99.90;;;;;;5036837;28;20461;-74
2023/11/23 01:54:18;;;;;;;3.93;3.03;;;2.90;99.90;;;;;;5026269;28;20507;-73
2023/11/23 01:56:47;;;;;;;8.83;3.30;;;2.80;99.90;;;;;;5053829;28;20430;-73
2023/11/23 01:59:15;;;;;;;3.67;2.53;;;2.80;99.90;;;;;;5047432;28;20447;-74
2023/11/23 02:01:41;;;;;;;4.17;3.10;;;2.80;99.90;;;;;;5045430;28;20465;-72
2023/11/23 02:04:09;;;;;;;5.37;3.57;;;2.80;99.90;;;;;;5027992;28;20451;-73
2023/11/23 02:06:34;;;;;;;5.60;3.63;;;2.80;99.90;;;;;;5058599;28;20436;-73
2023/11/23 02:09:00;;;;;;;4.13;3.20;;;2.80;99.90;;;;;;5051385;28;20458;-74
2023/11/23 02:11:26;;;;;;;3.90;2.90;;;2.90;99.90;;;;;;5046493;28;20694;-73
2023/11/23 02:13:54;;;;;;;5.37;3.73;;;3.00;99.90;;;;;;5027191;28;20713;-73
2023/11/23 02:16:19;;;;;;;6.47;3.70;;;2.90;99.90;;;;;;5032050;28;20525;-72
2023/11/23 02:18:45;;;;;;;5.67;3.60;;;2.80;99.90;;;;;;5016291;28;20484;-74
2023/11/23 02:21:11;;;;;;;5.20;2.73;;;2.80;99.90;;;;;;5043558;28;20272;-74
2023/11/23 02:23:36;;;;;;;4.30;3.20;;;2.90;99.90;;;;;;5049968;28;20310;-73
2023/11/23 02:26:02;;;;;;;6.50;3.70;;;3.00;99.90;;;;;;5050042;28;20307;-74
2023/11/23 02:28:32;;;;;;;5.10;3.60;;;3.00;99.90;;;;;;5032548;28;20323;-73
2023/11/23 02:30:58;;;;;;;4.63;3.00;;;3.10;99.90;;;;;;5053563;28;20653;-73
2023/11/23 02:33:23;;;;;;;5.63;3.23;;;3.20;99.90;;;;;;5024700;28;20462;-73
2023/11/23 02:35:49;;;;;;;6.50;4.17;;;3.10;99.90;;;;;;5036341;28;20267;-72
2023/11/23 02:38:15;;;;;;;5.70;3.67;;;3.10;99.90;;;;;;5046642;28;20222;-73
2023/11/23 02:40:40;;;;;;;5.00;3.50;;;3.00;99.90;;;;;;5044093;28;20219;-73
2023/11/23 02:43:07;;;;;;;5.23;3.37;;;3.00;99.90;;;;;;5049033;28;20228;-73
2023/11/23 02:45:33;;;;;;;4.97;3.77;;;3.10;99.90;;;;;;5048340;28;20227;-72
2023/11/23 02:47:58;;;;;;;6.37;3.10;;;3.10;99.90;;;;;;5033123;28;20500;-73
2023/11/23 02:50:25;;;;;;;6.93;3.60;;;2.90;99.90;;;;;;5067652;28;20220;-73
2023/11/23 02:52:52;;;;;;;4.13;3.17;;;2.90;99.90;;;;;;5051553;28;20226;-73
2023/11/23 02:55:18;;;;;;;5.17;2.90;;;3.00;99.90;;;;;;5053018;28;20447;-73
2023/11/23 02:57:44;;;;;;;4.97;3.40;;;3.00;99.90;;;;;;5047146;28;20490;-73
2023/11/23 03:00:12;;;;;;;8.43;3.73;;;3.10;99.90;;;;;;5047728;28;20458;-74
2023/11/23 03:02:38;;;;;;;3.63;2.50;;;3.10;99.90;;;;;;5063588;28;20556;-72
2023/11/23 03:05:04;;;;;;;6.27;3.63;;;3.10;99.90;;;;;;5035712;28;20545;-73
2023/11/23 03:07:30;;;;;;;5.80;3.50;;;2.90;99.90;;;;;;5032688;28;20508;-73
2023/11/23 03:09:56;;;;;;;5.90;3.60;;;2.90;99.90;;;;;;5042072;28;20533;-73
2023/11/23 03:12:21;;;;;;;5.30;2.90;;;2.80;99.90;;;;;;5072509;28;20215;-73
2023/11/23 03:14:47;;;;;;;5.80;3.30;;;2.80;99.90;;;;;;5051328;28;20220;-73
2023/11/23 03:17:13;;;;;;;3.17;2.40;;;2.80;99.90;;;;;;5051176;28;20277;-73
2023/11/23 03:19:38;;;;;;;9.37;3.03;;;2.90;99.90;;;;;;5048126;28;20234;-73
2023/11/23 03:22:07;;;;;;;4.57;3.07;;;2.80;99.90;;;;;;5076278;28;20234;-73
2023/11/23 03:24:33;;;;;;;4.80;2.70;;;2.60;99.90;;;;;;5047787;28;20224;-73
2023/11/23 03:26:58;;;;;;;6.50;3.10;;;2.70;99.90;;;;;;5047680;28;20466;-72
2023/11/23 03:29:26;;;;;;;6.50;4.60;;;2.60;99.90;;;;;;5041064;28;20223;-73
2023/11/23 03:31:51;;;;;;;4.93;3.27;;;2.40;99.90;;;;;;5032081;28;20442;-73
2023/11/23 03:34:17;;;;;;;5.23;3.40;;;2.40;99.90;;;;;;5067159;28;20462;-73
2023/11/23 03:36:43;;;;;;;3.57;2.70;;;2.40;99.90;;;;;;5047150;28;20235;-73
2023/11/23 03:39:08;;;;;;;4.03;3.20;;;2.50;99.90;;;;;;5051124;28;20307;-73
2023/11/23 03:41:34;;;;;;;6.87;3.90;;;2.70;99.90;;;;;;5051303;28;20220;-73
2023/11/23 03:44:00;;;;;;;4.63;3.33;;;2.70;99.90;;;;;;5046834;28;20212;-73
2023/11/23 03:46:26;;;;;;;5.63;3.53;;;2.70;99.90;;;;;;5047891;28;20271;-72
2023/11/23 03:48:52;;;;;;;3.60;2.93;;;2.80;99.90;;;;;;5031332;28;20581;-73
2023/11/23 03:51:17;;;;;;;4.03;3.13;;;2.70;99.90;;;;;;5058373;28;20247;-72
2023/11/23 03:53:43;;;;;;;5.40;3.37;;;2.70;99.90;;;;;;5028524;28;20274;-73
2023/11/23 03:56:15;;;;;;;6.40;3.50;;;2.60;99.90;;;;;;5074223;28;20230;-72
2023/11/23 03:58:42;;;;;;;5.30;3.23;;;2.60;99.90;;;;;;5040948;28;20265;-73
2023/11/23 04:01:09;;;;;;;7.33;3.80;;;2.50;99.90;;;;;;5053539;28;20446;-73
2023/11/23 04:03:35;;;;;;;8.10;4.03;;;2.50;99.90;;;;;;5046453;28;20470;-70
2023/11/23 04:06:01;;;;;;;4.83;3.50;;;2.60;99.90;;;;;;5052014;28;20461;-73
2023/11/23 04:08:27;;;;;;;5.70;3.10;;;2.60;99.90;;;;;;5052770;28;20474;-72
2023/11/23 04:10:53;;;;;;;4.90;3.90;;;2.70;99.90;;;;;;5054396;28;20458;-72
2023/11/23 04:13:18;;;;;;;4.97;3.10;;;2.70;99.90;;;;;;5033818;28;20299;-73
2023/11/23 04:15:45;;;;;;;4.37;2.93;;;2.80;99.90;;;;;;5050313;28;20224;-73
2023/11/23 04:18:11;;;;;;;6.57;3.03;;;2.70;99.90;;;;;;5050488;28;20254;-72
2023/11/23 04:20:37;;;;;;;6.90;4.20;;;2.80;99.90;;;;;;5067172;28;20515;-72
2023/11/23 04:23:02;;;;;;;5.00;3.10;;;2.90;99.90;;;;;;5052959;28;20216;-72
2023/11/23 04:25:28;;;;;;;7.43;4.37;;;3.00;99.90;;;;;;5042344;28;20594;-72
2023/11/23 04:27:54;;;;;;;9.70;3.20;;;3.10;99.90;;;;;;5044845;28;20224;-73
2023/11/23 04:30:23;;;;;;;7.20;3.37;;;3.00;99.90;;;;;;5051952;28;20490;-73
2023/11/23 04:32:48;;;;;;;6.00;3.53;;;3.10;99.90;;;;;;5049618;28;20307;-73
2023/11/23 04:35:14;;;;;;;5.97;3.67;;;3.10;99.90;;;;;;5050929;28;20565;-73
2023/11/23 04:37:39;;;;;;;7.57;3.67;;;3.10;99.90;;;;;;5051728;28;20223;-74
2023/11/23 04:40:06;;;;;;;4.80;3.33;;;3.00;99.90;;;;;;5053628;28;20463;-73
2023/11/23 04:42:35;;;;;;;5.53;3.20;;;3.10;99.90;;;;;;5038422;28;20224;-73
2023/11/23 04:45:02;;;;;;;3.30;2.90;;;3.10;99.90;;;;;;5030034;28;20457;-73
2023/11/23 04:47:28;;;;;;;6.83;3.90;;;3.20;99.90;;;;;;5048228;28;20467;-73
2023/11/23 04:49:54;;;;;;;5.50;3.00;;;3.20;99.90;;;;;;5070071;28;20519;-73
2023/11/23 04:52:19;;;;;;;9.60;4.23;;;3.20;99.90;;;;;;5047415;28;20226;-72
2023/11/23 04:54:45;;;;;;;4.10;3.50;;;3.10;99.90;;;;;;5034773;28;20247;-73
2023/11/23 04:57:11;;;;;;;7.10;3.63;;;3.10;99.90;;;;;;5072945;28;20212;-73
2023/11/23 04:59:36;;;;;;;6.40;3.80;;;3.20;99.90;;;;;;5051950;28;20208;-73
2023/11/23 05:02:02;;;;;;;10.47;3.90;;;3.20;99.90;;;;;;5067193;28;20215;-73
2023/11/23 05:04:28;;;;;;;3.77;3.17;;;3.10;99.90;;;;;;5044864;28;20277;-73
2023/11/23 05:06:55;;;;;;;5.50;3.80;;;3.00;99.90;;;;;;5066334;28;20277;-73
2023/11/23 05:09:21;;;;;;;6.90;4.83;;;3.00;99.90;;;;;;5023725;28;20303;-73
2023/11/23 05:11:48;;;;;;;4.73;3.27;;;3.10;99.90;;;;;;5048985;28;20452;-73
2023/11/23 05:14:14;;;;;;;12.77;3.23;;;3.10;99.90;;;;;;5008504;28;20838;-73
2023/11/23 05:16:39;;;;;;;6.97;4.30;;;3.20;99.90;;;;;;5064689;28;20485;-74
2023/11/23 05:19:05;;;;;;;4.33;3.17;;;3.30;99.90;;;;;;5027599;28;20208;-73
2023/11/23 05:21:31;;;;;;;7.67;4.90;;;3.30;99.90;;;;;;5059627;28;20621;-73
2023/11/23 05:23:56;;;;;;;7.17;4.20;;;3.30;99.90;;;;;;5031237;28;20686;-72
2023/11/23 05:26:22;;;;;;;5.90;3.53;;;3.30;99.90;;;;;;5058182;28;20216;-73
2023/11/23 05:28:48;;;;;;;5.60;3.30;;;3.30;99.90;;;;;;5023495;28;20698;-73
2023/11/23 05:31:14;;;;;;;5.33;3.90;;;3.30;99.90;;;;;;5046011;28;20255;-74
2023/11/23 05:33:40;;;;;;;7.03;4.07;;;3.20;99.90;;;;;;5030200;28;20232;-73
2023/11/23 05:36:09;;;;;;;4.77;3.80;;;3.00;99.90;;;;;;5062118;28;20494;-73
2023/11/23 05:38:34;;;;;;;6.97;4.07;;;3.00;99.90;;;;;;5025510;28;20216;-73
2023/11/23 05:41:00;;;;;;;3.57;3.27;;;3.00;99.90;;;;;;5044009;28;20483;-73
2023/11/23 05:43:26;;;;;;;9.53;4.27;;;2.90;99.90;;;;;;5051356;28;20285;-73
2023/11/23 05:45:51;;;;;;;10.40;4.20;;;3.00;99.90;;;;;;5061568;28;20222;-72
2023/11/23 05:48:17;;;;;;;7.03;4.50;;;3.00;99.90;;;;;;5055678;28;20311;-73
2023/11/23 05:50:42;;;;;;;7.67;4.23;;;2.90;99.90;;;;;;5055487;28;20314;-73
2023/11/23 05:53:08;;;;;;;6.37;3.70;;;2.90;99.90;;;;;;5027330;28;20224;-73
2023/11/23 05:55:34;;;;;;;8.03;3.80;;;2.80;99.90;;;;;;5043943;28;20320;-72
2023/11/23 05:57:59;;;;;;;6.97;3.80;;;2.80;99.90;;;;;;5048506;28;20255;-74
2023/11/23 06:00:25;;;;;;;9.43;4.47;;;2.90;99.90;;;;;;5051229;28;20213;-73
2023/11/23 06:02:50;;;;;;;7.90;4.67;;;2.90;99.90;;;;;;5029525;28;20216;-73
2023/11/23 06:05:17;;;;;;;6.17;4.37;;;2.90;99.90;;;;;;5046012;28;20302;-73
2023/11/23 06:07:43;;;;;;;6.67;4.13;;;2.90;99.90;;;;;;5046111;28;20225;-72
2023/11/23 06:10:11;;;;;;;8.63;5.13;;;2.90;99.90;;;;;;5020772;28;20470;-73
2023/11/23 06:12:38;;;;;;;10.23;5.17;;;2.90;99.90;;;;;;5041384;28;20359;-73
2023/11/23 06:15:06;;;;;;;5.13;3.97;;;2.90;99.90;;;;;;5045236;28;20486;-73
2023/11/23 06:17:32;;;;;;;6.70;4.43;;;2.90;99.90;;;;;;5057352;28;20554;-73
2023/11/23 06:19:57;;;;;;;7.37;4.80;;;2.90;99.90;;;;;;5040952;28;20538;-73
2023/11/23 06:22:23;;;;;;;7.90;4.07;;;2.90;99.90;;;;;;5025515;28;20224;-73
2023/11/23 06:24:48;;;;;;;8.30;4.57;;;3.00;99.90;;;;;;5023387;28;20225;-73
2023/11/23 06:27:14;;;;;;;12.63;4.83;;;3.00;99.90;;;;;;5019894;28;20209;-73
2023/11/23 06:29:40;;;;;;;8.60;4.93;;;3.10;99.90;;;;;;5045045;28;20225;-73
2023/11/23 06:32:06;;;;;;;8.83;4.13;;;3.20;99.90;;;;;;5017348;28;20224;-72
2023/11/23 06:34:32;;;;;;;6.00;3.87;;;3.30;99.90;;;;;;5057179;28;20213;-73
2023/11/23 06:36:57;;;;;;;6.07;4.00;;;3.30;99.90;;;;;;5053189;28;20554;-73
2023/11/23 06:39:26;;;;;;;5.00;3.50;;;3.40;99.90;;;;;;5041818;28;20223;-72
2023/11/23 06:41:53;;;;;;;10.53;4.60;;;3.30;99.90;;;;;;5043611;28;20227;-73
2023/11/23 06:44:23;;;;;;;6.10;4.23;;;3.40;99.90;;;;;;5040451;28;20522;-73
2023/11/23 06:46:49;;;;;;;5.80;4.00;;;3.40;99.90;;;;;;5032063;28;20525;-73
2023/11/23 06:49:15;;;;;;;6.30;3.97;;;3.50;99.90;;;;;;5033830;28;20551;-73
2023/11/23 06:51:41;;;;;;;7.00;4.63;;;3.50;99.90;;;;;;5061364;28;20904;-72
2023/11/23 06:54:09;;;;;;;8.07;4.43;;;3.50;99.90;;;;;;5064267;28;20462;-73
2023/11/23 06:56:35;;;;;;;6.17;4.63;;;3.50;99.90;;;;;;5025042;28;20485;-73
2023/11/23 06:59:01;;;;;;;6.53;3.93;;;3.50;99.90;;;;;;5040347;28;20448;-73
2023/11/23 07:01:27;;;;;;;5.70;3.70;;;3.60;99.90;;;;;;5039487;28;20227;-73
2023/11/23 07:03:53;;;;;;;15.43;4.53;;;3.60;99.90;;;;;;5024711;28;20538;-74
2023/11/23 07:06:23;;;;;;;6.93;4.43;;;3.60;99.90;;;;;;5037161;28;20209;-74
2023/11/23 07:08:53;;;;;;;7.30;4.93;;;3.60;99.90;;;;;;5042105;28;20232;-74
2023/11/23 07:11:19;;;;;;;8.77;5.30;;;3.50;99.90;;;;;;5043449;28;20464;-73
2023/11/23 07:13:46;;;;;;;9.23;4.57;;;3.50;99.90;;;;;;5053629;28;20493;-74
2023/11/23 07:16:15;;;;;;;7.80;5.40;;;3.50;99.90;;;;;;5027173;28;20262;-74
2023/11/23 07:18:41;;;;;;;12.30;5.03;;;3.40;99.90;;;;;;5042544;28;20522;-74
2023/11/23 07:21:07;;;;;;;10.23;5.20;;;3.40;99.90;;;;;;5044953;28;20546;-73
2023/11/23 07:23:36;;;;;;;8.47;4.70;;;3.50;99.90;;;;;;5038922;28;20302;-73
2023/11/23 07:26:02;;;;;;;11.50;5.53;;;3.40;99.90;;;;;;5069072;28;20473;-74
2023/11/23 07:28:27;;;;;;;10.83;5.17;;;3.40;99.90;;;;;;5032989;28;20465;-73
2023/11/23 07:30:56;;;;;;;19.70;6.60;;;3.40;99.90;;;;;;5048878;28;20463;-74
2023/11/23 07:33:22;;;;;;;14.10;5.90;;;3.40;99.90;;;;;;5067296;28;20218;-74
2023/11/23 07:35:49;;;;;;;16.37;4.50;;;3.50;99.90;;;;;;5048804;28;20549;-74
2023/11/23 07:38:15;;;;;;;8.60;4.27;;;3.40;99.90;;;;;;5067414;28;20470;-73
2023/11/23 07:40:41;;;;;;;7.77;4.80;;;3.50;99.90;;;;;;5031700;28;20462;-74
2023/11/23 07:43:08;;;;;;;13.73;5.17;;;3.50;99.90;;;;;;5033164;28;20224;-74
2023/11/23 07:45:34;;;;;;;8.33;4.00;;;3.60;99.90;;;;;;5043218;28;20486;-74
2023/11/23 07:48:00;;;;;;;12.87;6.07;;;3.70;99.90;;;;;;5051107;28;20482;-74
2023/11/23 07:50:25;;;;;;;6.83;4.50;;;3.80;99.90;;;;;;5050333;28;20461;-74
2023/11/23 07:52:51;;;;;;;6.77;4.33;;;3.80;99.90;;;;;;5052212;28;20219;-74
2023/11/23 07:55:17;;;;;;;10.30;5.50;;;3.80;99.90;;;;;;5052995;28;20262;-74
2023/11/23 07:57:44;;;;;;;11.40;5.10;;;3.80;99.90;;;;;;5048141;28;20208;-71
2023/11/23 08:00:13;;;;;;;22.13;5.03;;;3.90;99.90;;;;;;5065920;28;20465;-74
2023/11/23 08:02:38;;;;;;;10.27;5.20;;;3.90;99.90;;;;;;5059314;28;20463;-74
2023/11/23 08:05:05;;;;;;;7.23;4.17;;;3.90;99.90;;;;;;5061628;28;20451;-74
2023/11/23 08:07:30;;;;;;;7.63;4.70;;;3.90;99.90;;;;;;5030222;28;20228;-74
2023/11/23 08:09:58;;;;;;;7.30;4.30;;;4.00;99.90;;;;;;5010584;28;20459;-74
2023/11/23 08:12:25;;;;;;;8.03;5.03;;;4.00;99.90;;;;;;5044910;28;20220;-74
2023/11/23 08:14:51;;;;;;;10.43;4.90;;;4.00;99.90;;;;;;5013807;28;20788;-74
2023/11/23 08:17:17;;;;;;;10.30;4.37;;;4.00;99.90;;;;;;5046107;28;20459;-75
2023/11/23 08:19:43;;;;;;;13.60;5.40;;;3.90;99.90;;;;;;5032184;28;20447;-75
2023/11/23 08:22:12;;;;;;;10.60;5.97;;;3.90;99.90;;;;;;5040076;28;20299;-74
2023/11/23 08:24:38;;;;;;;9.90;5.10;;;4.00;99.90;;;;;;5059288;28;20451;-72
2023/11/23 08:27:05;;;;;;;19.80;6.60;;;4.00;99.90;;;;;;5023236;28;20463;-74
2023/11/23 08:29:31;;;;;;;8.57;4.97;;;4.00;99.90;;;;;;5042480;28;20522;-74
2023/11/23 08:31:58;;;;;;;9.37;5.77;;;4.00;99.90;;;;;;5041393;28;20559;-74
2023/11/23 08:34:24;;;;;;;7.90;4.50;;;4.00;99.90;;;;;;5027856;28;20216;-74
2023/11/23 08:36:50;;;;;;;9.60;5.80;;;4.10;99.90;;;;;;5023092;28;20463;-75
2023/11/23 08:39:19;;;;;;;9.03;6.47;;;4.10;99.90;;;;;;5026894;28;20501;-75
2023/11/23 08:41:45;;;;;;;17.87;10.90;;;4.10;99.90;;;;;;5013038;28;20478;-74
2023/11/23 08:44:13;;;;;;;19.37;11.90;;;4.20;99.90;;;;;;5040888;28;20551;-75
2023/11/23 08:46:43;;;;;;;11.93;8.83;;;4.20;99.90;;;;;;5026300;28;20455;-75
2023/11/23 08:49:10;;;;;;;12.63;7.07;;;4.30;99.90;;;;;;5030429;28;20510;-74
2023/11/23 08:51:37;;;;;;;8.53;5.30;;;4.30;99.90;;;;;;5037805;28;20460;-73
2023/11/23 08:54:03;;;;;;;8.03;4.80;;;4.30;99.90;;;;;;5010015;28;20915;-74
2023/11/23 08:56:30;;;;;;;11.30;5.67;;;4.40;99.90;;;;;;5051494;28;20471;-74
2023/11/23 08:58:56;;;;;;;9.40;6.13;;;4.40;99.90;;;;;;5042197;28;20456;-74
2023/11/23 09:01:23;;;;;;;8.80;5.10;;;4.40;99.90;;;;;;5024677;28;20482;-74
2023/11/23 09:03:48;;;;;;;7.63;5.70;;;4.50;99.90;;;;;;5019917;28;20693;-75
2023/11/23 09:06:14;;;;;;;9.13;5.60;;;4.50;99.90;;;;;;5039682;28;20482;-75
2023/11/23 09:08:40;;;;;;;10.70;6.20;;;4.50;99.90;;;;;;5046165;28;20267;-74
2023/11/23 09:11:06;;;;;;;7.27;5.20;;;4.50;99.90;;;;;;5043832;28;20223;-75
2023/11/23 09:13:32;;;;;;;12.20;9.20;;;4.60;99.90;;;;;;5033480;28;20219;-75
2023/11/23 09:15:58;;;;;;;18.83;10.30;;;4.60;99.90;;;;;;5031725;28;20530;-76
2023/11/23 09:18:24;;;;;;;37.77;20.27;;;4.70;99.90;;;;;;5025203;28;20808;-75
2023/11/23 09:20:54;;;;;;;41.07;23.33;;;4.80;99.90;;;;;;5041367;28;20469;-75
2023/11/23 09:23:20;;;;;;;21.20;13.00;;;4.80;99.90;;;;;;5037492;28;20220;-75
2023/11/23 09:25:46;;;;;;;8.77;6.00;;;4.90;99.90;;;;;;5036996;28;20520;-74
2023/11/23 09:28:12;;;;;;;10.60;5.77;;;4.90;99.90;;;;;;5042016;28;20236;-74
2023/11/23 09:30:38;;;;;;;10.83;6.23;;;5.00;99.90;;;;;;5047633;28;20979;-75
2023/11/23 09:33:09;;;;;;;8.17;5.20;;;5.00;99.90;;;;;;5032053;28;20477;-75
2023/11/23 09:35:39;;;;;;;9.93;4.50;;;5.10;99.90;;;;;;5046273;28;20477;-75
2023/11/23 09:38:08;;;;;;;7.43;4.90;;;5.00;99.90;;;;;;5062961;28;20461;-74
2023/11/23 09:40:34;;;;;;;12.20;5.80;;;5.10;99.90;;;;;;5065085;28;21976;-73
2023/11/23 09:43:00;;;;;;;9.67;6.50;;;5.10;99.90;;;;;;5059245;28;20524;-75
2023/11/23 09:45:26;;;;;;;8.80;5.70;;;5.10;99.90;;;;;;5047722;28;20231;-73
2023/11/23 09:47:52;;;;;;;11.83;5.77;;;5.10;99.90;;;;;;5064744;28;20466;-75
2023/11/23 09:50:19;;;;;;;13.03;5.87;;;5.20;99.90;;;;;;5026176;28;20220;-75
2023/11/23 09:52:46;;;;;;;9.53;5.30;;;5.20;99.90;;;;;;5032943;28;20853;-75
2023/11/23 09:55:16;;;;;;;7.87;4.63;;;5.20;99.90;;;;;;5028856;28;20463;-74
2023/11/23 09:57:48;;;;;;;13.10;6.97;;;5.30;99.90;;;;;;5059576;28;20455;-74
2023/11/23 10:00:14;;;;;;;13.10;6.43;;;5.30;99.90;;;;;;5043181;28;20573;-74
2023/11/23 10:02:43;;;;;;;8.80;5.97;;;5.40;99.90;;;;;;5046767;28;20533;-75
2023/11/23 10:05:13;;;;;;;8.83;5.57;;;5.40;99.90;;;;;;5043642;28;20470;-75
2023/11/23 10:07:42;;;;;;;13.27;6.77;;;5.50;99.90;;;;;;5034518;28;20461;-75
2023/11/23 10:10:10;;;;;;;8.57;5.33;;;5.50;99.90;;;;;;5031643;28;20471;-75
2023/11/23 10:12:36;;;;;;;10.70;5.43;;;5.50;99.90;;;;;;5012910;28;20542;-75
2023/11/23 10:15:02;;;;;;;8.93;5.70;;;5.50;99.90;;;;;;5042576;28;20550;-74
2023/11/23 10:17:29;;;;;;;9.30;5.87;;;5.60;99.90;;;;;;5041344;28;20235;-75
2023/11/23 10:20:09;;;;;;;19.53;5.10;;;5.60;99.90;;;;;;5043088;28;20459;-75
2023/11/23 10:22:34;;;;;;;7.60;5.67;;;5.70;99.90;;;;;;5047771;28;20454;-75
2023/11/23 10:25:00;;;;;;;9.90;6.27;;;5.70;99.90;;;;;;5026464;28;20989;-74
2023/11/23 10:27:26;;;;;;;7.70;4.90;;;5.80;99.90;;;;;;5025865;28;20279;-75
2023/11/23 10:29:52;;;;;;;14.93;9.40;;;5.80;99.90;;;;;;5030306;28;20208;-74
2023/11/23 10:32:19;;;;;;;18.67;12.90;;;5.80;99.90;;;;;;5050020;28;20984;-74
2023/11/23 10:34:45;;;;;;;14.30;10.13;;;5.80;99.90;;;;;;5052937;28;20223;-75
2023/11/23 10:37:14;;;;;;;25.97;16.33;;;5.90;99.90;;;;;;5040008;28;20446;-74
2023/11/23 10:39:40;;;;;;;21.80;14.70;;;5.90;99.90;;;;;;5024949;28;20454;-74
2023/11/23 10:42:06;;;;;;;12.83;9.57;;;5.90;99.90;;;;;;5026985;28;20814;-75
2023/11/23 10:44:33;;;;;;;12.50;7.10;;;6.00;99.90;;;;;;5022725;28;20549;-74
2023/11/23 10:47:03;;;;;;;15.60;7.53;;;6.00;99.90;;;;;;5005085;28;20492;-75
2023/11/23 10:49:36;;;;;;;9.83;6.10;;;6.00;99.90;;;;;;5034496;28;20474;-74
2023/11/23 10:52:03;;;;;;;9.60;6.20;;;6.00;99.90;;;;;;5035287;28;20483;-76
2023/11/23 10:54:29;;;;;;;10.60;6.40;;;6.00;99.90;;;;;;5045918;28;20825;-74
2023/11/23 10:56:59;;;;;;;14.73;7.63;;;6.10;99.90;;;;;;5028039;28;20483;-76
2023/11/23 10:59:26;;;;;;;14.93;7.97;;;6.10;99.90;;;;;;5031545;28;20223;-75
2023/11/23 11:01:55;;;;;;;11.23;6.67;;;6.10;99.90;;;;;;5041124;28;20460;-75
2023/11/23 11:04:22;;;;;;;12.60;6.37;;;6.10;99.90;;;;;;5026707;28;20477;-75
2023/11/23 11:06:55;;;;;;;12.40;7.00;;;6.10;99.90;;;;;;5035965;28;20539;-75
2023/11/23 11:09:25;;;;;;;14.40;7.10;;;6.10;99.90;;;;;;5031869;28;20502;-74
2023/11/23 11:11:55;;;;;;;15.17;8.03;;;6.10;99.90;;;;;;5037461;28;20560;-74
2023/11/23 11:14:34;;;;;;;11.37;7.20;;;6.10;99.90;;;;;;5046702;28;20494;-74
2023/11/23 11:17:02;;;;;;;13.57;6.80;;;6.10;99.90;;;;;;5042022;28;20462;-74
2023/11/23 11:19:28;;;;;;;14.27;7.10;;;6.10;99.90;;;;;;5039445;28;20474;-75
2023/11/23 11:21:59;;;;;;;12.40;6.80;;;6.10;99.90;;;;;;5036129;28;20443;-75
2023/11/23 11:24:24;;;;;;;14.60;7.70;;;6.10;99.90;;;;;;5060069;28;20651;-74
2023/11/23 11:26:58;;;;;;;13.73;6.97;;;6.20;99.90;;;;;;5063196;28;20477;-75
2023/11/23 11:29:23;;;;;;;11.57;7.17;;;6.20;99.90;;;;;;5046968;28;20281;-75
2023/11/23 11:31:52;;;;;;;13.40;7.37;;;6.20;99.90;;;;;;5045681;28;20478;-75
2023/11/23 11:34:20;;;;;;;14.23;6.77;;;6.20;99.90;;;;;;5033900;28;20304;-75
2023/11/23 11:36:57;;;;;;;16.33;8.50;;;6.30;99.90;;;;;;5043175;28;21040;-74
2023/11/23 11:39:22;;;;;;;14.07;7.90;;;6.30;99.90;;;;;;5067312;28;20879;-75
2023/11/23 11:41:56;;;;;;;9.70;5.77;;;6.30;99.90;;;;;;5043799;28;20450;-75
2023/11/23 11:44:29;;;;;;;13.80;7.67;;;6.30;99.90;;;;;;5047485;28;20224;-75
2023/11/23 11:46:59;;;;;;;13.50;7.47;;;6.30;99.90;;;;;;5047320;28;20545;-75
2023/11/23 11:49:25;;;;;;;11.83;6.87;;;6.30;99.90;;;;;;5064629;28;20458;-75
2023/11/23 11:51:51;;;;;;;12.03;7.03;;;6.30;99.90;;;;;;5063263;28;20457;-75
2023/11/23 11:54:21;;;;;;;12.17;7.43;;;6.30;99.90;;;;;;5046590;28;20466;-75
2023/11/23 11:56:50;;;;;;;15.13;7.57;;;6.40;99.90;;;;;;5063347;28;20516;-75
2023/11/23 11:59:24;;;;;;;9.80;5.60;;;6.40;99.90;;;;;;5043932;28;20521;-76
2023/11/23 12:01:50;;;;;;;12.40;7.77;;;6.40;99.90;;;;;;5031764;28;20508;-75
2023/11/23 12:04:18;;;;;;;9.30;6.30;;;6.40;99.90;;;;;;5066540;28;20461;-75
2023/11/23 12:06:45;;;;;;;10.73;6.03;;;6.50;99.90;;;;;;5044107;28;20224;-75
2023/11/23 12:09:24;;;;;;;13.37;7.53;;;6.40;99.90;;;;;;5046609;28;20532;-74
2023/11/23 12:12:00;;;;;;;14.20;7.67;;;6.50;99.90;;;;;;5071218;28;20458;-75
2023/11/23 12:14:34;;;;;;;11.97;6.53;;;6.50;99.90;;;;;;5064655;28;20485;-75
2023/11/23 12:17:26;;;;;;;8.73;5.83;;;6.50;99.90;;;;;;5048417;28;20478;-75
2023/11/23 12:19:54;;;;;;;9.30;6.70;;;6.50;99.90;;;;;;5050551;28;20470;-75
2023/11/23 12:22:23;;;;;;;14.50;9.20;;;6.60;99.90;;;;;;5043605;28;20458;-75
2023/11/23 12:24:49;;;;;;;23.57;12.40;;;6.60;99.90;;;;;;5042816;28;20465;-75
2023/11/23 12:27:15;;;;;;;13.87;9.43;;;6.60;99.90;;;;;;5027955;28;20453;-74
2023/11/23 12:29:41;;;;;;;16.33;10.70;;;6.60;99.90;;;;;;5041500;28;20517;-75
2023/11/23 12:32:06;;;;;;;13.87;8.80;;;6.60;99.90;;;;;;5049175;28;20458;-75
2023/11/23 12:34:34;;;;;;;14.07;7.73;;;6.60;99.90;;;;;;5052364;28;20204;-75
2023/11/23 12:37:00;;;;;;;12.20;7.60;;;6.60;99.90;;;;;;5047752;28;20303;-75
2023/11/23 12:39:28;;;;;;;10.97;8.30;;;6.60;99.90;;;;;;5035262;28;20454;-75
2023/11/23 12:41:54;;;;;;;12.90;8.03;;;6.70;99.90;;;;;;5030911;28;20448;-75
2023/11/23 12:44:20;;;;;;;13.00;8.03;;;6.70;99.90;;;;;;5045005;28;20460;-75
2023/11/23 12:46:46;;;;;;;12.23;7.03;;;6.70;99.90;;;;;;5022682;28;20444;-75
2023/11/23 12:49:14;;;;;;;12.37;8.20;;;6.80;99.90;;;;;;5024235;28;20774;-75
2023/11/23 12:51:40;;;;;;;12.37;7.43;;;6.80;99.90;;;;;;5049873;28;20469;-74